Time;durP1;ratioP1;P1;durP2;ratioP2;P2;SDS_P1;SDS_P2;PMS_P1;PMS_P2;Temp;Humidity;BMP_temperature;BMP_pressure;BME280_temperature;BME280_humidity;BME280_pressure;Samples;Min_cycle;Max_cycle;Signal;HPM_P1;HPM_P2
2023/01/22 00:01:04;;;;;;;14.38;6.22;;;1.80;99.90;;;;;;5015687;28;20034;-69
2023/01/22 00:03:30;;;;;;;13.20;6.72;;;1.10;99.90;;;;;;5014445;28;20054;-68
2023/01/22 00:05:56;;;;;;;13.27;7.35;;;1.30;99.90;;;;;;5015475;28;20056;-69
2023/01/22 00:08:21;;;;;;;13.30;6.68;;;1.20;99.90;;;;;;5014611;28;20081;-69
2023/01/22 00:10:51;;;;;;;16.23;7.63;;;1.20;99.90;;;;;;5013621;28;20052;-69
2023/01/22 00:13:18;;;;;;;14.32;7.00;;;1.20;99.90;;;;;;5015275;28;20034;-69
2023/01/22 00:15:44;;;;;;;13.65;8.00;;;1.30;99.90;;;;;;5014511;28;20054;-69
2023/01/22 00:18:10;;;;;;;14.07;7.65;;;1.60;99.90;;;;;;5014409;28;20076;-69
2023/01/22 00:20:36;;;;;;;16.02;7.25;;;1.10;99.90;;;;;;5014326;28;20050;-69
2023/01/22 00:23:02;;;;;;;12.75;7.40;;;1.00;99.90;;;;;;5015243;28;20042;-69
2023/01/22 00:25:28;;;;;;;11.95;7.35;;;1.70;99.90;;;;;;5014057;28;20045;-69
2023/01/22 00:27:54;;;;;;;13.10;7.22;;;1.00;99.90;;;;;;5015162;28;20049;-69
2023/01/22 00:30:20;;;;;;;13.30;7.57;;;1.00;99.90;;;;;;5015132;28;20100;-69
2023/01/22 00:32:46;;;;;;;13.40;6.75;;;1.30;99.90;;;;;;5015621;28;20380;-69
2023/01/22 00:35:12;;;;;;;12.02;7.32;;;1.00;99.90;;;;;;5014106;28;20100;-69
2023/01/22 00:37:38;;;;;;;13.25;6.93;;;1.00;99.90;;;;;;5014832;28;20079;-69
2023/01/22 00:40:04;;;;;;;13.68;7.57;;;1.30;99.90;;;;;;5014849;28;20049;-69
2023/01/22 00:42:30;;;;;;;11.35;6.32;;;1.00;99.90;;;;;;5014888;28;20046;-69
2023/01/22 00:44:58;;;;;;;11.23;6.85;;;1.70;99.90;;;;;;5014845;28;20140;-69
2023/01/22 00:47:25;;;;;;;12.80;7.55;;;2.60;99.90;;;;;;5015296;28;20129;-69
2023/01/22 00:49:50;;;;;;;12.05;6.63;;;1.00;99.90;;;;;;5015031;28;20400;-69
2023/01/22 00:52:16;;;;;;;13.15;7.13;;;1.80;99.90;;;;;;5014712;28;20052;-69
2023/01/22 00:54:42;;;;;;;12.43;6.75;;;1.40;99.90;;;;;;5014272;28;20084;-69
2023/01/22 00:57:07;;;;;;;12.57;6.78;;;1.20;99.90;;;;;;5013681;28;20041;-69
2023/01/22 00:59:33;;;;;;;13.10;7.38;;;1.50;99.90;;;;;;5014295;28;20410;-69
2023/01/22 01:01:59;;;;;;;11.65;6.18;;;1.30;99.90;;;;;;5014224;28;20185;-69
2023/01/22 01:04:24;;;;;;;11.80;6.78;;;1.30;99.90;;;;;;5013353;28;20054;-69
2023/01/22 01:06:50;;;;;;;13.30;6.93;;;0.90;99.90;;;;;;5014439;28;20509;-68
2023/01/22 01:09:16;;;;;;;10.90;6.20;;;1.10;99.90;;;;;;5013200;28;20049;-69
2023/01/22 01:11:41;;;;;;;12.45;6.72;;;0.80;99.90;;;;;;4996827;28;20050;-69
2023/01/22 01:14:08;;;;;;;11.18;6.82;;;0.80;99.90;;;;;;5014473;28;20191;-69
2023/01/22 01:16:34;;;;;;;12.77;7.22;;;0.90;99.90;;;;;;5014904;28;20081;-69
2023/01/22 01:19:04;;;;;;;11.02;6.88;;;2.00;99.90;;;;;;5014538;28;20444;-69
2023/01/22 01:21:30;;;;;;;10.68;6.70;;;0.80;99.90;;;;;;5014143;28;20124;-71
2023/01/22 01:23:57;;;;;;;14.85;7.15;;;1.20;99.90;;;;;;5014742;28;20049;-69
2023/01/22 01:26:24;;;;;;;13.55;7.78;;;0.70;99.90;;;;;;5012959;28;20045;-69
2023/01/22 01:28:53;;;;;;;12.85;6.80;;;0.60;99.90;;;;;;5014156;28;20041;-69
2023/01/22 01:31:21;;;;;;;12.25;6.80;;;1.40;99.90;;;;;;5012975;28;20037;-69
2023/01/22 01:33:47;;;;;;;13.23;6.50;;;1.30;99.90;;;;;;5013074;28;20152;-69
2023/01/22 01:36:19;;;;;;;9.23;5.70;;;1.00;99.90;;;;;;5013867;28;20097;-69
2023/01/22 01:38:44;;;;;;;10.20;5.57;;;1.20;99.90;;;;;;5013992;28;20060;-69
2023/01/22 01:41:13;;;;;;;10.82;6.15;;;0.80;99.90;;;;;;5013835;28;20049;-69
2023/01/22 01:43:39;;;;;;;10.10;6.03;;;1.20;99.90;;;;;;5013929;28;20054;-69
2023/01/22 01:46:23;;;;;;;11.13;6.25;;;1.00;99.90;;;;;;5014345;28;20072;-69
2023/01/22 01:48:52;;;;;;;12.00;5.70;;;0.80;99.90;;;;;;5012642;28;20052;-69
2023/01/22 01:51:24;;;;;;;10.52;5.85;;;1.00;99.90;;;;;;4996071;28;20049;-69
2023/01/22 01:53:51;;;;;;;9.90;5.27;;;1.80;99.90;;;;;;5013853;28;20042;-69
2023/01/22 01:56:21;;;;;;;9.43;4.95;;;1.20;99.90;;;;;;5014526;28;20054;-69
2023/01/22 01:58:51;;;;;;;8.52;4.85;;;1.00;99.90;;;;;;5014570;28;20391;-69
2023/01/22 02:01:17;;;;;;;10.68;4.97;;;1.00;99.90;;;;;;5014272;28;20050;-69
2023/01/22 02:03:45;;;;;;;10.65;4.55;;;1.50;99.90;;;;;;5013718;28;20050;-68
2023/01/22 02:06:13;;;;;;;8.90;5.30;;;1.10;99.90;;;;;;4996311;28;20089;-68
2023/01/22 02:08:41;;;;;;;9.93;3.97;;;1.20;99.90;;;;;;5013649;28;20046;-69
2023/01/22 02:11:08;;;;;;;7.45;4.32;;;1.20;99.90;;;;;;5013519;28;20046;-69
2023/01/22 02:13:36;;;;;;;11.52;5.05;;;1.30;99.90;;;;;;5013479;28;20141;-68
2023/01/22 02:16:04;;;;;;;7.45;3.88;;;1.60;99.90;;;;;;5013520;28;20046;-69
2023/01/22 02:18:30;;;;;;;6.90;3.63;;;2.60;99.90;;;;;;4996511;28;20058;-69
2023/01/22 02:20:58;;;;;;;9.88;3.67;;;1.20;99.90;;;;;;5013829;28;20216;-68
2023/01/22 02:23:25;;;;;;;5.82;3.28;;;1.90;99.90;;;;;;5013528;28;20046;-68
2023/01/22 02:25:51;;;;;;;8.57;4.13;;;1.20;99.90;;;;;;5013468;28;20125;-68
2023/01/22 02:28:17;;;;;;;6.95;4.18;;;1.30;99.90;;;;;;5013502;28;20049;-68
2023/01/22 02:30:43;;;;;;;8.40;4.43;;;1.80;99.90;;;;;;5012323;28;20049;-68
2023/01/22 02:33:09;;;;;;;5.57;3.90;;;1.30;99.90;;;;;;5014229;28;20050;-68
2023/01/22 02:35:35;;;;;;;7.07;2.85;;;1.30;99.90;;;;;;5017293;28;20148;-69
2023/01/22 02:38:01;;;;;;;6.57;3.10;;;1.90;99.90;;;;;;5016036;28;20042;-68
2023/01/22 02:40:28;;;;;;;9.07;3.78;;;1.40;99.90;;;;;;5017082;28;20499;-69
2023/01/22 02:42:55;;;;;;;4.88;2.90;;;2.00;99.90;;;;;;5017165;28;20115;-68
2023/01/22 02:45:21;;;;;;;5.05;2.80;;;2.50;99.90;;;;;;5016465;28;20046;-68
2023/01/22 02:47:47;;;;;;;7.28;3.63;;;1.50;99.90;;;;;;5017476;28;20042;-69
2023/01/22 02:50:13;;;;;;;5.22;2.75;;;1.60;99.90;;;;;;5017821;28;20345;-68
2023/01/22 02:52:38;;;;;;;4.50;2.17;;;1.50;99.90;;;;;;5016710;28;20046;-68
2023/01/22 02:55:04;;;;;;;5.03;2.25;;;2.00;99.90;;;;;;5016924;28;20052;-68
2023/01/22 02:57:30;;;;;;;4.53;2.63;;;1.50;99.90;;;;;;5017711;28;20435;-68
2023/01/22 02:59:57;;;;;;;6.60;3.03;;;2.00;99.90;;;;;;5015880;28;20072;-68
2023/01/22 03:02:23;;;;;;;4.53;2.78;;;1.60;99.90;;;;;;5000087;28;20494;-68
2023/01/22 03:04:51;;;;;;;5.13;2.60;;;1.80;99.90;;;;;;5015812;28;20089;-68
2023/01/22 03:07:18;;;;;;;5.72;3.38;;;2.10;99.90;;;;;;5016646;28;20046;-68
2023/01/22 03:09:44;;;;;;;6.22;3.15;;;1.80;99.90;;;;;;5016314;28;20495;-68
2023/01/22 03:12:10;;;;;;;5.38;2.65;;;1.80;99.90;;;;;;5017199;28;20041;-68
2023/01/22 03:22:50;;;;;;;3.85;2.15;;;1.60;99.90;;;;;;5016105;28;20492;-68
2023/01/22 03:25:16;;;;;;;3.58;1.73;;;2.00;99.90;;;;;;5015502;28;20050;-68
2023/01/22 03:28:07;;;;;;;3.97;2.60;;;1.40;99.90;;;;;;5015122;28;20468;-68
2023/01/22 03:30:27;;;;;;;5.43;2.47;;;2.10;99.90;;;;;;5016434;28;20369;-69
2023/01/22 03:32:53;;;;;;;5.18;2.75;;;1.50;99.90;;;;;;5016361;28;20080;-68
2023/01/22 03:35:18;;;;;;;4.18;2.22;;;1.60;99.90;;;;;;5016563;28;20042;-69
2023/01/22 03:37:44;;;;;;;3.90;2.50;;;2.20;99.90;;;;;;5016193;28;20049;-67
2023/01/22 03:40:10;;;;;;;5.80;2.25;;;2.20;99.90;;;;;;5014558;28;20096;-68
2023/01/22 03:42:36;;;;;;;5.50;2.10;;;1.40;99.90;;;;;;5015409;28;20055;-68
2023/01/22 03:45:01;;;;;;;4.25;1.75;;;2.20;99.90;;;;;;5015065;28;20054;-68
2023/01/22 03:47:27;;;;;;;4.75;1.77;;;1.50;99.90;;;;;;5015933;28;20125;-68
2023/01/22 03:49:53;;;;;;;4.43;2.20;;;2.20;99.90;;;;;;5015966;28;20050;-68
2023/01/22 03:52:18;;;;;;;5.28;1.95;;;1.50;99.90;;;;;;5014706;28;20050;-68
2023/01/22 03:54:44;;;;;;;4.88;2.45;;;1.80;99.90;;;;;;5015484;28;20129;-68
2023/01/22 03:57:10;;;;;;;3.47;2.03;;;2.50;99.90;;;;;;5015805;28;20041;-69
2023/01/22 03:59:35;;;;;;;6.32;3.15;;;1.70;99.90;;;;;;5016060;28;20590;-68
2023/01/22 04:02:01;;;;;;;8.63;2.60;;;2.20;99.90;;;;;;5015695;28;20050;-69
2023/01/22 04:04:27;;;;;;;5.22;2.35;;;2.30;99.90;;;;;;5015672;28;20045;-68
2023/01/22 04:06:52;;;;;;;4.28;2.85;;;1.70;99.90;;;;;;5016024;28;20069;-68
2023/01/22 04:09:18;;;;;;;4.78;2.58;;;1.70;99.90;;;;;;5014361;28;20128;-68
2023/01/22 04:11:43;;;;;;;5.28;2.92;;;1.70;99.90;;;;;;5015777;28;20042;-68
2023/01/22 04:14:09;;;;;;;5.47;2.72;;;2.20;99.90;;;;;;5015348;28;20054;-68
2023/01/22 04:16:35;;;;;;;5.80;2.67;;;1.80;99.90;;;;;;5015345;28;20042;-68
2023/01/22 04:19:01;;;;;;;5.82;2.72;;;1.50;99.90;;;;;;5015414;28;20073;-68
2023/01/22 04:21:26;;;;;;;4.50;2.40;;;2.40;99.90;;;;;;5014362;28;20049;-68
2023/01/22 04:23:52;;;;;;;6.47;2.92;;;1.50;99.90;;;;;;5016052;28;20551;-68
2023/01/22 04:26:18;;;;;;;4.78;2.40;;;1.80;99.90;;;;;;5015114;28;20546;-68
2023/01/22 04:28:43;;;;;;;5.53;2.75;;;1.50;99.90;;;;;;5015153;28;20092;-68
2023/01/22 04:31:09;;;;;;;3.35;2.20;;;2.40;99.90;;;;;;5015108;28;20509;-68
2023/01/22 04:33:35;;;;;;;5.22;2.33;;;2.20;99.90;;;;;;5013808;28;20050;-68
2023/01/22 04:36:01;;;;;;;5.50;2.58;;;1.80;99.90;;;;;;5013626;28;20050;-68
2023/01/22 04:38:26;;;;;;;4.05;2.47;;;2.70;99.90;;;;;;5014979;28;20049;-68
2023/01/22 04:40:52;;;;;;;3.88;2.28;;;1.90;99.90;;;;;;5014872;28;20042;-68
2023/01/22 04:43:18;;;;;;;3.97;2.25;;;2.20;99.90;;;;;;5014934;28;20081;-68
2023/01/22 04:45:43;;;;;;;4.82;2.35;;;2.10;99.90;;;;;;5015736;28;20045;-68
2023/01/22 04:48:09;;;;;;;3.47;2.30;;;1.90;99.90;;;;;;5013549;28;20042;-68
2023/01/22 04:50:35;;;;;;;4.03;2.75;;;1.70;99.90;;;;;;5014815;28;20089;-68
2023/01/22 04:53:02;;;;;;;5.65;2.72;;;1.70;99.90;;;;;;5015079;28;20468;-68
2023/01/22 04:55:28;;;;;;;4.75;2.33;;;1.60;99.90;;;;;;5015070;28;20052;-68
2023/01/22 04:57:55;;;;;;;4.60;2.10;;;1.60;99.90;;;;;;5014460;28;20046;-68
2023/01/22 05:00:21;;;;;;;4.03;2.20;;;2.50;99.90;;;;;;5014663;28;20046;-68
2023/01/22 05:02:46;;;;;;;4.28;2.50;;;1.40;99.90;;;;;;5014607;28;20503;-68
2023/01/22 05:05:13;;;;;;;4.65;2.28;;;2.10;99.90;;;;;;5014391;28;20053;-68
2023/01/22 05:07:38;;;;;;;4.30;2.47;;;1.40;99.90;;;;;;5013261;28;20084;-68
2023/01/22 05:10:05;;;;;;;4.45;2.75;;;1.50;99.90;;;;;;5014412;28;20050;-68
2023/01/22 05:12:30;;;;;;;3.40;2.65;;;1.50;99.90;;;;;;5014411;28;20054;-68
2023/01/22 05:14:56;;;;;;;4.63;2.10;;;2.30;99.90;;;;;;5014921;28;20065;-68
2023/01/22 05:17:22;;;;;;;5.68;2.78;;;2.00;99.90;;;;;;5015174;28;20049;-68
2023/01/22 05:19:47;;;;;;;3.78;2.70;;;1.80;99.90;;;;;;5014327;28;20046;-68
2023/01/22 05:22:13;;;;;;;4.53;2.58;;;1.40;99.90;;;;;;5014352;28;20088;-68
2023/01/22 05:24:39;;;;;;;4.53;2.70;;;1.60;99.90;;;;;;5013339;28;20038;-69
2023/01/22 05:27:04;;;;;;;5.30;2.38;;;1.50;99.90;;;;;;5014375;28;20591;-68
2023/01/22 05:29:30;;;;;;;4.18;2.08;;;2.10;99.90;;;;;;5014121;28;20053;-68
2023/01/22 05:31:56;;;;;;;6.03;2.92;;;2.20;99.90;;;;;;5014389;28;20100;-68
2023/01/22 05:34:23;;;;;;;4.03;2.65;;;1.40;99.90;;;;;;5014052;28;20053;-68
2023/01/22 05:36:49;;;;;;;4.15;2.20;;;2.10;99.90;;;;;;5014044;28;20049;-68
2023/01/22 05:39:16;;;;;;;6.25;3.08;;;2.30;99.90;;;;;;5014528;28;20046;-71
2023/01/22 05:41:41;;;;;;;4.22;2.38;;;1.60;99.90;;;;;;5013946;28;20046;-69
2023/01/22 05:44:10;;;;;;;4.60;2.35;;;1.70;99.90;;;;;;4996485;28;20049;-68
2023/01/22 05:46:36;;;;;;;4.50;2.60;;;1.30;99.90;;;;;;5013208;28;20050;-69
2023/01/22 05:49:01;;;;;;;5.00;2.30;;;1.40;99.90;;;;;;5014430;28;20111;-68
2023/01/22 05:51:27;;;;;;;4.45;2.55;;;2.20;99.90;;;;;;5013927;28;20101;-68
2023/01/22 05:53:53;;;;;;;4.68;2.78;;;1.40;99.90;;;;;;5013820;28;20188;-68
2023/01/22 05:56:18;;;;;;;4.38;2.70;;;1.50;99.90;;;;;;5013763;28;20041;-68
2023/01/22 05:58:44;;;;;;;4.55;2.78;;;2.30;99.90;;;;;;5014257;28;20046;-68
2023/01/22 06:01:10;;;;;;;3.85;2.65;;;1.30;99.90;;;;;;5013748;28;20054;-68
2023/01/22 06:03:36;;;;;;;5.30;2.75;;;1.60;99.90;;;;;;5014279;28;20124;-69
2023/01/22 06:06:05;;;;;;;3.53;2.60;;;2.00;99.90;;;;;;5013653;28;20492;-68
2023/01/22 06:08:31;;;;;;;5.50;2.80;;;1.20;99.90;;;;;;5015166;28;20557;-69
2023/01/22 06:11:05;;;;;;;4.20;2.50;;;1.40;99.90;;;;;;5017690;28;20081;-68
2023/01/22 06:13:32;;;;;;;3.90;2.65;;;1.20;99.90;;;;;;5017136;28;20050;-69
2023/01/22 06:15:58;;;;;;;4.70;3.20;;;1.10;99.90;;;;;;5018479;28;20042;-68
2023/01/22 06:18:24;;;;;;;4.57;2.70;;;1.40;99.90;;;;;;5016503;28;20057;-68
2023/01/22 06:20:50;;;;;;;5.78;2.95;;;2.10;99.90;;;;;;5016725;28;20092;-68
2023/01/22 06:23:16;;;;;;;3.90;2.25;;;1.20;99.90;;;;;;5017499;28;20050;-68
2023/01/22 06:25:42;;;;;;;5.70;2.70;;;1.20;99.90;;;;;;5017455;28;20397;-68
2023/01/22 06:28:08;;;;;;;4.20;2.60;;;1.30;99.90;;;;;;5017353;28;20084;-68
2023/01/22 06:30:35;;;;;;;3.97;2.33;;;1.60;99.90;;;;;;5016430;28;20057;-68
2023/01/22 06:33:00;;;;;;;5.18;2.80;;;1.50;99.90;;;;;;5017413;28;20487;-68
2023/01/22 06:35:26;;;;;;;4.25;2.90;;;1.20;99.90;;;;;;5017874;28;20099;-68
2023/01/22 06:37:52;;;;;;;4.40;2.90;;;1.30;99.90;;;;;;5000779;28;20046;-68
2023/01/22 06:40:18;;;;;;;5.78;2.83;;;1.70;99.90;;;;;;5015994;28;20147;-68
2023/01/22 06:42:43;;;;;;;5.05;2.42;;;1.20;99.90;;;;;;5017730;28;20038;-67
2023/01/22 06:45:10;;;;;;;5.57;2.58;;;1.10;99.90;;;;;;5017002;28;20061;-68
2023/01/22 06:47:35;;;;;;;4.53;2.47;;;1.20;99.90;;;;;;5016736;28;20129;-68
2023/01/22 06:50:01;;;;;;;3.90;2.50;;;1.80;99.90;;;;;;5017053;28;20092;-68
2023/01/22 06:52:27;;;;;;;3.78;2.65;;;1.50;99.90;;;;;;5017821;28;20088;-68
2023/01/22 06:54:52;;;;;;;5.85;3.28;;;1.40;99.90;;;;;;5016309;28;20046;-68
2023/01/22 06:57:18;;;;;;;6.75;2.88;;;1.70;99.90;;;;;;5016955;28;20050;-68
2023/01/22 06:59:44;;;;;;;4.57;2.50;;;1.60;99.90;;;;;;5015942;28;20050;-68
2023/01/22 07:02:15;;;;;;;7.20;3.03;;;1.70;99.90;;;;;;5015827;28;20073;-68
2023/01/22 07:04:41;;;;;;;3.40;2.35;;;2.00;99.90;;;;;;5017628;28;20435;-68
2023/01/22 07:07:07;;;;;;;7.72;3.13;;;1.20;99.90;;;;;;5015494;28;20042;-68
2023/01/22 07:09:32;;;;;;;4.32;2.47;;;1.30;99.90;;;;;;5016827;28;20050;-69
2023/01/22 07:11:59;;;;;;;5.55;2.58;;;1.60;99.90;;;;;;5016633;28;20042;-68
2023/01/22 07:14:25;;;;;;;3.85;2.70;;;1.20;99.90;;;;;;5015279;28;20533;-68
2023/01/22 07:16:51;;;;;;;4.70;3.08;;;1.70;99.90;;;;;;4999097;28;20132;-68
2023/01/22 07:19:17;;;;;;;5.85;3.30;;;1.40;99.90;;;;;;5016816;28;20384;-68
2023/01/22 07:21:43;;;;;;;5.85;2.67;;;1.00;99.90;;;;;;5016171;28;20539;-68
2023/01/22 07:24:09;;;;;;;6.72;2.78;;;1.50;99.90;;;;;;5016134;28;20049;-68
2023/01/22 07:26:35;;;;;;;4.93;2.97;;;1.10;99.90;;;;;;5016542;28;20565;-68
2023/01/22 07:29:01;;;;;;;4.13;2.97;;;1.20;99.90;;;;;;5016297;28;20050;-68
2023/01/22 07:31:27;;;;;;;4.55;3.08;;;1.30;99.90;;;;;;5016243;28;20054;-68
2023/01/22 07:33:53;;;;;;;3.95;3.03;;;1.50;99.90;;;;;;5017027;28;20038;-69
2023/01/22 07:36:19;;;;;;;5.53;3.35;;;1.00;99.90;;;;;;5016191;28;20050;-68
2023/01/22 07:38:44;;;;;;;5.57;3.35;;;1.10;99.90;;;;;;4998771;28;20104;-68
2023/01/22 07:41:10;;;;;;;4.43;3.10;;;1.00;99.90;;;;;;5016533;28;20055;-68
2023/01/22 07:43:36;;;;;;;4.53;3.00;;;1.10;99.90;;;;;;5015095;28;20096;-68
2023/01/22 07:46:04;;;;;;;4.57;3.05;;;1.30;99.90;;;;;;5015954;28;20046;-68
2023/01/22 07:48:30;;;;;;;4.55;2.90;;;1.00;99.90;;;;;;5015894;28;20395;-68
2023/01/22 07:50:59;;;;;;;5.65;3.00;;;1.20;99.90;;;;;;5015857;28;20054;-68
2023/01/22 07:53:26;;;;;;;4.47;2.88;;;2.00;99.90;;;;;;5016144;28;20050;-68
2023/01/22 07:55:51;;;;;;;6.03;3.03;;;1.10;99.90;;;;;;5016378;28;20053;-68
2023/01/22 07:58:17;;;;;;;7.60;3.40;;;2.50;99.90;;;;;;5016330;28;20478;-69
2023/01/22 08:00:43;;;;;;;6.28;4.22;;;1.10;99.90;;;;;;5015747;28;20096;-69
2023/01/22 08:03:13;;;;;;;6.38;4.38;;;1.20;99.90;;;;;;5014675;28;20050;-69
2023/01/22 08:05:40;;;;;;;6.30;4.60;;;1.30;99.90;;;;;;5015472;28;20068;-69
2023/01/22 08:08:10;;;;;;;5.18;4.28;;;1.00;99.90;;;;;;5014325;28;20041;-69
2023/01/22 08:10:37;;;;;;;5.20;3.88;;;1.70;99.90;;;;;;5014536;28;20458;-69
2023/01/22 08:13:03;;;;;;;5.55;4.28;;;1.30;99.90;;;;;;5014339;28;20046;-69
2023/01/22 08:15:28;;;;;;;6.38;4.45;;;1.20;99.90;;;;;;5014964;28;20054;-69
2023/01/22 08:17:54;;;;;;;5.72;3.90;;;1.10;99.90;;;;;;5014715;28;20057;-69
2023/01/22 08:20:20;;;;;;;7.22;3.80;;;1.30;99.90;;;;;;5015005;28;20455;-69
2023/01/22 08:22:46;;;;;;;5.07;3.88;;;1.00;99.90;;;;;;5014632;28;20137;-68
2023/01/22 08:25:11;;;;;;;7.45;4.43;;;1.90;99.90;;;;;;5014087;28;20049;-68
2023/01/22 08:27:37;;;;;;;5.07;4.07;;;1.20;99.90;;;;;;5013923;28;20064;-68
2023/01/22 08:30:04;;;;;;;7.57;5.20;;;1.00;99.90;;;;;;5015186;28;20053;-68
2023/01/22 08:32:30;;;;;;;4.72;3.92;;;1.10;99.90;;;;;;5014035;28;20046;-68
2023/01/22 08:34:56;;;;;;;5.53;3.78;;;1.10;99.90;;;;;;5015134;28;20077;-69
2023/01/22 08:37:22;;;;;;;6.70;4.78;;;2.30;99.90;;;;;;5014837;28;20077;-68
2023/01/22 08:39:47;;;;;;;5.20;4.10;;;1.10;99.90;;;;;;5015162;28;20195;-69
2023/01/22 08:42:13;;;;;;;7.13;3.92;;;1.50;99.90;;;;;;5015203;28;20499;-68
2023/01/22 08:44:39;;;;;;;6.18;3.90;;;1.80;99.90;;;;;;5014888;28;20121;-68
2023/01/22 08:47:05;;;;;;;5.20;4.43;;;1.80;99.90;;;;;;5013564;28;20499;-69
2023/01/22 08:49:30;;;;;;;5.18;4.20;;;1.00;99.90;;;;;;5015330;28;20468;-68
2023/01/22 08:51:56;;;;;;;5.13;3.80;;;1.70;99.90;;;;;;5014433;28;20050;-68
2023/01/22 08:54:22;;;;;;;5.63;4.65;;;1.40;99.90;;;;;;5014734;28;20141;-68
2023/01/22 08:56:48;;;;;;;5.47;4.55;;;1.60;99.90;;;;;;5016068;28;20154;-68
2023/01/22 08:59:14;;;;;;;5.90;4.70;;;1.20;99.90;;;;;;5013445;28;20089;-68
2023/01/22 09:01:40;;;;;;;6.07;4.68;;;1.50;99.90;;;;;;5015310;28;20049;-69
2023/01/22 09:04:08;;;;;;;6.93;5.10;;;1.20;99.90;;;;;;5013544;28;20431;-69
2023/01/22 09:06:35;;;;;;;5.75;4.15;;;1.10;99.90;;;;;;5013895;28;20132;-69
2023/01/22 09:09:02;;;;;;;7.80;5.40;;;1.10;99.90;;;;;;5014625;28;20400;-68
2023/01/22 09:11:28;;;;;;;5.15;4.63;;;1.30;99.90;;;;;;5013266;28;20053;-69
2023/01/22 09:13:58;;;;;;;7.82;3.85;;;1.20;99.90;;;;;;5014472;28;20046;-69
2023/01/22 09:16:25;;;;;;;5.35;4.47;;;1.20;99.90;;;;;;5015058;28;20038;-69
2023/01/22 09:18:51;;;;;;;5.72;4.43;;;1.20;99.90;;;;;;5014216;28;20077;-69
2023/01/22 09:21:16;;;;;;;5.75;4.50;;;1.70;99.90;;;;;;5014381;28;20479;-69
2023/01/22 09:23:42;;;;;;;6.53;4.10;;;1.80;99.90;;;;;;5014053;28;20050;-69
2023/01/22 09:26:08;;;;;;;6.53;4.25;;;2.50;99.90;;;;;;5014539;28;20054;-69
2023/01/22 09:28:34;;;;;;;9.52;4.50;;;2.40;99.90;;;;;;5014330;28;20479;-68
2023/01/22 09:30:59;;;;;;;4.40;2.40;;;1.20;99.90;;;;;;5014237;28;20069;-69
2023/01/22 09:33:25;;;;;;;4.13;2.58;;;1.70;99.90;;;;;;5014255;28;20430;-69
2023/01/22 09:35:51;;;;;;;3.70;2.67;;;1.70;99.90;;;;;;5014177;28;20061;-69
2023/01/22 09:38:17;;;;;;;6.32;2.90;;;1.60;99.90;;;;;;5014143;28;20046;-68
2023/01/22 09:40:51;;;;;;;3.45;2.85;;;2.00;99.90;;;;;;5014639;28;20375;-69
2023/01/22 09:43:24;;;;;;;4.45;3.25;;;1.50;99.90;;;;;;5014884;28;20137;-69
2023/01/22 09:45:54;;;;;;;5.10;2.83;;;1.70;99.90;;;;;;5014064;28;20069;-70
2023/01/22 09:48:21;;;;;;;5.97;3.05;;;1.30;99.90;;;;;;5013657;28;20518;-70
2023/01/22 09:50:48;;;;;;;5.30;3.33;;;1.30;99.90;;;;;;5013950;28;20053;-70
2023/01/22 09:53:20;;;;;;;3.92;2.80;;;2.20;99.90;;;;;;5014247;28;20054;-70
2023/01/22 09:55:49;;;;;;;5.32;3.53;;;1.90;99.90;;;;;;5014500;28;20053;-71
2023/01/22 09:58:19;;;;;;;6.07;3.20;;;1.40;99.90;;;;;;5013908;28;20042;-70
2023/01/22 10:01:10;;;;;;;4.88;3.03;;;1.30;99.90;;;;;;5014206;28;20100;-70
2023/01/22 10:03:46;;;;;;;6.72;3.10;;;1.40;99.90;;;;;;5010994;28;20068;-71
2023/01/22 10:06:17;;;;;;;5.15;3.28;;;1.50;99.90;;;;;;5013473;28;20049;-70
2023/01/22 10:09:01;;;;;;;5.60;3.30;;;2.30;99.90;;;;;;5013733;28;20054;-68
2023/01/22 10:11:27;;;;;;;4.82;2.85;;;2.40;99.90;;;;;;5014208;28;20415;-68
2023/01/22 10:13:55;;;;;;;5.18;3.30;;;1.40;99.90;;;;;;5013527;28;20046;-68
2023/01/22 10:16:21;;;;;;;3.83;2.72;;;1.50;99.90;;;;;;5013443;28;20488;-69
2023/01/22 10:19:22;;;;;;;5.22;3.17;;;1.50;99.90;;;;;;5014177;28;20061;-69
2023/01/22 10:21:52;;;;;;;6.90;3.70;;;1.60;99.90;;;;;;5014032;28;20049;-68
2023/01/22 10:24:17;;;;;;;4.97;3.30;;;2.20;99.90;;;;;;5013398;28;20495;-68
2023/01/22 10:26:53;;;;;;;5.97;3.40;;;1.60;99.90;;;;;;5013537;28;20038;-68
2023/01/22 10:29:23;;;;;;;5.68;3.92;;;1.60;99.90;;;;;;5013713;28;20050;-68
2023/01/22 10:31:55;;;;;;;4.85;3.20;;;1.60;99.90;;;;;;5013595;28;20120;-68
2023/01/22 10:34:33;;;;;;;5.05;3.22;;;1.60;99.90;;;;;;5013518;28;20560;-68
2023/01/22 10:37:02;;;;;;;5.35;3.30;;;1.60;99.90;;;;;;5013511;28;20052;-68
2023/01/22 10:39:38;;;;;;;5.80;3.90;;;2.00;99.90;;;;;;5012294;28;20100;-69
2023/01/22 10:42:04;;;;;;;3.90;3.00;;;1.60;99.90;;;;;;5013343;28;20049;-69
2023/01/22 10:44:29;;;;;;;5.57;2.97;;;1.60;99.90;;;;;;5012351;28;20054;-70
2023/01/22 10:47:07;;;;;;;5.82;3.40;;;2.40;99.90;;;;;;5013420;28;20046;-69
2023/01/22 10:49:32;;;;;;;4.30;3.22;;;1.70;99.90;;;;;;5013454;28;20085;-69
2023/01/22 10:52:05;;;;;;;7.57;3.08;;;1.80;99.90;;;;;;5013405;28;20092;-69
2023/01/22 10:54:34;;;;;;;4.20;2.97;;;2.10;99.90;;;;;;5014778;28;20096;-69
2023/01/22 10:57:23;;;;;;;5.40;2.97;;;2.10;99.90;;;;;;5016053;28;20049;-69
2023/01/22 10:59:58;;;;;;;4.43;3.25;;;1.70;99.90;;;;;;5017034;28;20480;-69
2023/01/22 11:02:25;;;;;;;6.40;3.28;;;2.60;99.90;;;;;;5016033;28;20042;-69
2023/01/22 11:04:51;;;;;;;4.65;2.97;;;2.10;99.90;;;;;;5016546;28;20462;-69
2023/01/22 11:07:21;;;;;;;5.15;3.35;;;2.00;99.90;;;;;;5015630;28;20108;-69
2023/01/22 11:10:07;;;;;;;5.18;3.72;;;2.00;99.90;;;;;;5016667;28;20046;-69
2023/01/22 11:12:47;;;;;;;5.22;3.08;;;1.80;99.90;;;;;;5017119;28;20053;-69
2023/01/22 11:15:30;;;;;;;4.80;3.20;;;2.00;99.90;;;;;;5015732;28;20459;-69
2023/01/22 11:18:00;;;;;;;6.22;2.50;;;1.90;99.90;;;;;;5017580;28;20045;-69
2023/01/22 11:20:28;;;;;;;6.28;3.05;;;2.20;99.90;;;;;;5015894;28;20046;-69
2023/01/22 11:23:09;;;;;;;5.10;3.40;;;2.50;99.90;;;;;;5015562;28;20046;-69
2023/01/22 11:26:07;;;;;;;5.72;4.28;;;2.40;99.90;;;;;;5017046;28;20046;-69
2023/01/22 11:28:51;;;;;;;5.05;3.38;;;2.00;99.90;;;;;;5014074;28;20103;-69
2023/01/22 11:31:59;;;;;;;6.13;3.47;;;2.10;99.90;;;;;;5016493;28;20045;-69
2023/01/22 11:34:57;;;;;;;4.65;3.28;;;2.00;99.90;;;;;;4955612;28;20126;-69
2023/01/22 11:37:55;;;;;;;7.13;3.10;;;2.10;99.90;;;;;;4955677;29;20051;-69
2023/01/22 11:40:52;;;;;;;6.88;3.72;;;1.90;99.90;;;;;;5008038;28;20061;-69
2023/01/22 11:43:42;;;;;;;5.10;2.85;;;2.10;99.90;;;;;;5008196;28;20061;-70
2023/01/22 11:46:23;;;;;;;3.03;2.53;;;2.00;99.90;;;;;;5014950;28;20392;-69
2023/01/22 11:49:21;;;;;;;3.95;2.30;;;2.00;99.90;;;;;;5016170;28;20057;-69
2023/01/22 11:52:01;;;;;;;5.93;3.15;;;2.20;99.90;;;;;;5020876;28;20050;-70
2023/01/22 11:54:54;;;;;;;5.25;3.10;;;2.10;99.90;;;;;;5018801;28;20045;-71
2023/01/22 11:57:35;;;;;;;6.35;3.55;;;2.00;99.90;;;;;;4999025;28;20049;-71
2023/01/22 12:00:25;;;;;;;5.93;2.97;;;2.40;99.90;;;;;;5016557;28;20085;-68
2023/01/22 12:03:17;;;;;;;8.40;2.95;;;2.10;99.90;;;;;;5016454;28;20369;-69
2023/01/22 12:05:45;;;;;;;4.28;2.55;;;2.00;99.90;;;;;;5015314;28;20053;-68
2023/01/22 12:08:27;;;;;;;4.07;2.17;;;2.10;99.90;;;;;;5015619;28;20045;-69
2023/01/22 12:11:07;;;;;;;3.13;1.88;;;2.00;99.90;;;;;;5016288;28;20127;-68
2023/01/22 12:13:56;;;;;;;5.43;3.00;;;2.00;99.90;;;;;;5015689;28;20105;-69
2023/01/22 12:16:38;;;;;;;3.47;1.83;;;2.10;99.90;;;;;;5015720;28;20069;-69
2023/01/22 12:19:28;;;;;;;7.05;2.72;;;2.10;99.90;;;;;;5015567;28;20050;-69
2023/01/22 12:21:54;;;;;;;4.75;2.72;;;2.10;99.90;;;;;;5015417;28;20046;-68
2023/01/22 12:24:49;;;;;;;3.42;2.05;;;2.90;99.90;;;;;;5014679;28;20049;-68
2023/01/22 12:27:31;;;;;;;2.90;1.65;;;2.10;99.90;;;;;;4993049;28;20057;-68
2023/01/22 12:30:00;;;;;;;5.55;2.28;;;2.10;99.90;;;;;;5015212;28;20050;-69
2023/01/22 12:32:29;;;;;;;3.45;1.95;;;2.70;99.90;;;;;;5015156;28;20053;-69
2023/01/22 12:35:07;;;;;;;6.32;2.35;;;2.30;99.90;;;;;;5015135;28;20069;-69
2023/01/22 12:37:56;;;;;;;4.55;2.40;;;2.10;99.90;;;;;;5015752;28;20436;-69
2023/01/22 12:40:45;;;;;;;5.22;2.70;;;2.30;99.90;;;;;;5015052;28;20133;-69
2023/01/22 12:43:12;;;;;;;5.45;2.25;;;2.30;99.90;;;;;;5015046;28;20403;-69
2023/01/22 12:45:52;;;;;;;3.97;1.73;;;3.40;99.90;;;;;;5015520;28;20104;-69
2023/01/22 12:48:50;;;;;;;5.65;1.90;;;2.20;99.90;;;;;;5015623;28;20441;-70
2023/01/22 12:51:34;;;;;;;4.70;1.80;;;2.30;99.90;;;;;;5014788;28;20391;-70
2023/01/22 12:54:19;;;;;;;5.50;2.50;;;2.30;99.90;;;;;;5015383;28;20049;-69
2023/01/22 12:56:45;;;;;;;4.22;1.92;;;2.70;99.90;;;;;;5014786;28;20395;-70
2023/01/22 12:59:43;;;;;;;4.78;2.03;;;2.20;99.90;;;;;;5014732;28;20052;-70
2023/01/22 13:02:34;;;;;;;4.63;2.20;;;2.20;99.90;;;;;;5014261;28;20384;-70
2023/01/22 13:05:20;;;;;;;6.63;2.33;;;2.20;99.90;;;;;;5014720;28;20088;-69
2023/01/22 13:07:47;;;;;;;5.47;2.10;;;2.50;99.90;;;;;;5014511;28;20046;-70
2023/01/22 13:10:19;;;;;;;4.70;2.42;;;2.40;99.90;;;;;;5014523;28;20116;-70
2023/01/22 13:12:48;;;;;;;7.43;1.98;;;2.20;99.90;;;;;;5014573;28;20050;-70
2023/01/22 13:15:36;;;;;;;5.28;2.13;;;2.20;99.90;;;;;;5014034;28;20105;-70